Flight Track Log - Related Links

Times and Time Zones

All times are in EDT time to prevent confusion due to time zone crossing. See the GAO2721 flight status page for this flight to view local times or setup timezone preferences in your user account.

Time Position Orientation Groundspeed Altitude Reporting Facility
EDT Latitude Longitude Course Direction KTS MPH feet Rate Location/Type
Thu 03:24:00 AM 60.4039 21.6512 250° West  Level Estimated
Thu 03:25:00 AM 60.3760 21.4989 250° West  Level Estimated
Thu 03:26:00 AM 60.3478 21.3469 250° West  Level Estimated
Thu 03:27:00 AM 60.3195 21.1952 249° West  Level Estimated
Thu 03:28:00 AM 60.2910 21.0437 249° West  Level Estimated
Thu 03:29:00 AM 60.2623 20.8925 249° West  Level Estimated
Thu 03:30:00 AM 60.2334 20.7416 249° West  Level Estimated
Thu 03:31:00 AM 60.2044 20.5909 249° West  Level Estimated
Thu 03:32:00 AM 60.1752 20.4405 249° West  Level Estimated
Thu 03:33:00 AM 60.1459 20.2904 249° West  Level Estimated
Thu 03:34:00 AM 60.1163 20.1405 248° West  Level Estimated
Thu 03:35:00 AM 60.0867 19.9909 248° West  Level Estimated
Thu 03:36:00 AM 60.0568 19.8416 248° West  Level Estimated
Thu 03:37:00 AM 60.0267 19.6926 248° West  Level Estimated
Thu 03:38:00 AM 59.9965 19.5438 248° West  Level Estimated
Thu 03:39:00 AM 59.9662 19.3953 248° West  Level Estimated
Thu 03:40:00 AM 59.9356 19.2470 248° West  Level Estimated
Thu 03:41:00 AM 59.9049 19.0991 248° West  Level Estimated
Thu 03:42:00 AM 59.8741 18.9514 247° West  Level Estimated
Thu 03:43:00 AM 59.8430 18.8039 247° West  Level Estimated
Thu 03:44:00 AM 59.8118 18.6568 247° West  Level Estimated
Thu 03:45:00 AM 59.7805 18.5099 247° West  Level Estimated
Thu 03:46:00 AM 59.7490 18.3633 247° West  Level Estimated
Thu 03:47:00 AM 59.7173 18.2170 247° West  Level Estimated
Thu 03:48:00 AM 59.6854 18.0710 247° West  Level Estimated
Thu 03:49:00 AM 59.6534 17.9252 247° West  Level Estimated
Thu 03:50:00 AM 59.6519 17.9186 246° West  Level Estimated
Thu 03:51:00 AM 59.6519 17.9186 North  Level Estimated
Thu 03:52:00 AM 59.6519 17.9186 North  Level Estimated
Thu 03:53:00 AM 59.6519 17.9186 North  Level Estimated
Thu 03:54:00 AM 59.6519 17.9186 North  Level Estimated
Thu 03:55:00 AM 59.6519 17.9186 North  Level Estimated
Thu 03:56:00 AM 59.6519 17.9186 North  Level Estimated
Thu 03:57:00 AM 59.6519 17.9186 North  Level Estimated
Thu 03:58:00 AM 59.6519 17.9186 North  Level Estimated
Thu 03:59:00 AM 59.6519 17.9186 North  Level Estimated
Thu 04:00:00 AM 59.6519 17.9186 North  Level Estimated
Thu 04:01:00 AM 59.6519 17.9186 North  Level Estimated
Thu 04:02:00 AM 59.6519 17.9186 North  Level Estimated
Thu 04:03:00 AM 59.6519 17.9186 North  Level Estimated

Login

Don't have an account? Register now (free) for customized features, flight alerts, and more!